Time;durP1;ratioP1;P1;durP2;ratioP2;P2;SDS_P1;SDS_P2;PMS_P1;PMS_P2;Temp;Humidity;BMP_temperature;BMP_pressure;BME280_temperature;BME280_humidity;BME280_pressure;Samples;Min_cycle;Max_cycle;Signal;HPM_P1;HPM_P2
2021/01/16 00:00:27;;;;;;;19.80;10.98;;;-12.00;78.50;;;;;;5016499;28;20048;-80
2021/01/16 00:02:54;;;;;;;20.00;12.05;;;-11.90;78.80;;;;;;5013978;28;20037;-78
2021/01/16 00:05:21;;;;;;;24.17;12.73;;;-11.90;78.80;;;;;;5013305;28;20026;-80
2021/01/16 00:07:47;;;;;;;;;;;-11.80;79.40;;;;;;5014178;28;20602;-81
2021/01/16 00:10:16;;;;;;;24.05;14.27;;;-11.70;78.80;;;;;;5013796;28;19964;-81
2021/01/16 00:12:49;;;;;;;20.65;11.35;;;-11.70;77.90;;;;;;5010850;28;20398;-79
2021/01/16 00:15:16;;;;;;;21.27;11.45;;;-11.70;77.70;;;;;;5011924;28;20030;-81
2021/01/16 00:17:42;;;;;;;17.27;8.52;;;-11.70;78.00;;;;;;5013495;28;20561;-80
2021/01/16 00:20:10;;;;;;;19.02;11.98;;;-11.70;78.30;;;;;;5012857;28;20029;-80
2021/01/16 00:22:49;;;;;;;21.77;11.35;;;-11.60;78.00;;;;;;4995484;28;20037;-80
2021/01/16 00:25:15;;;;;;;20.20;10.90;;;-11.70;77.40;;;;;;4995233;28;20022;-79
2021/01/16 00:27:42;;;;;;;20.10;10.40;;;-11.70;78.40;;;;;;5013422;28;20080;-80
2021/01/16 00:30:09;;;;;;;15.40;10.15;;;-11.70;78.00;;;;;;4995279;28;20022;-81
2021/01/16 00:32:35;;;;;;;;;;;-11.60;77.80;;;;;;5014861;28;20109;-81
2021/01/16 00:35:07;;;;;;;13.27;8.63;;;-11.70;77.60;;;;;;5013222;28;19913;-78
2021/01/16 00:37:33;;;;;;;18.77;11.00;;;-11.70;77.50;;;;;;5012858;28;20025;-78
2021/01/16 00:39:59;;;;;;;20.45;9.07;;;-11.70;77.60;;;;;;5003291;28;20026;-78
2021/01/16 00:42:25;;;;;;;14.05;8.10;;;-11.70;77.50;;;;;;5009751;28;20487;-80
2021/01/16 00:44:51;;;;;;;28.75;12.85;;;-11.70;77.50;;;;;;5007844;28;20357;-80
2021/01/16 00:47:17;;;;;;;17.00;9.43;;;-11.80;77.00;;;;;;5012586;28;20029;-79
2021/01/16 00:49:43;;;;;;;16.45;8.75;;;-11.80;77.20;;;;;;5012756;28;20025;-78
2021/01/16 00:52:08;;;;;;;20.88;10.30;;;-11.90;77.60;;;;;;5013373;28;20080;-80
2021/01/16 00:54:34;;;;;;;15.40;9.05;;;-12.00;77.10;;;;;;5014897;28;20092;-79
2021/01/16 00:57:00;;;;;;;16.15;10.30;;;-12.00;77.20;;;;;;5015477;28;20018;-78
2021/01/16 00:59:26;;;;;;;21.77;10.90;;;-12.10;77.50;;;;;;5012628;28;20037;-79
2021/01/16 01:01:52;;;;;;;17.10;9.65;;;-12.10;77.50;;;;;;5012689;28;20507;-77
2021/01/16 01:04:18;;;;;;;18.95;8.90;;;-12.10;77.70;;;;;;5012684;28;20026;-78
2021/01/16 01:06:43;;;;;;;16.20;8.85;;;-12.10;78.10;;;;;;5014034;28;20046;-78
2021/01/16 01:09:09;;;;;;;20.98;9.10;;;-12.10;78.30;;;;;;5020465;28;20018;-79
2021/01/16 01:11:35;;;;;;;16.10;8.55;;;-12.10;78.30;;;;;;5000820;28;20053;-77
2021/01/16 01:14:01;;;;;;;13.23;8.07;;;-12.10;77.80;;;;;;4999114;28;20160;-78
2021/01/16 01:16:27;;;;;;;17.02;10.63;;;-12.20;78.00;;;;;;5016558;28;20030;-79
2021/01/16 01:18:53;;;;;;;17.42;10.43;;;-12.20;78.00;;;;;;5018162;28;20100;-78
2021/01/16 01:21:21;;;;;;;19.85;9.27;;;-12.10;78.40;;;;;;5016645;28;20022;-79
2021/01/16 01:23:47;;;;;;;22.40;11.98;;;-12.10;78.90;;;;;;4998652;28;20025;-78
2021/01/16 01:26:13;;;;;;;17.13;10.52;;;-12.10;79.30;;;;;;5023497;28;20108;-78
2021/01/16 01:28:39;;;;;;;18.65;9.38;;;-12.00;79.20;;;;;;5029272;28;20414;-77
2021/01/16 01:31:05;;;;;;;19.42;9.68;;;-12.00;79.30;;;;;;5016317;28;20029;-79
2021/01/16 01:33:30;;;;;;;15.02;8.55;;;-11.90;79.60;;;;;;5015968;28;20030;-77
2021/01/16 01:35:56;;;;;;;18.67;9.45;;;-11.90;79.50;;;;;;5011131;28;20177;-79
2021/01/16 01:38:22;;;;;;;18.42;10.30;;;-11.90;78.90;;;;;;5010203;28;20067;-77
2021/01/16 01:40:48;;;;;;;22.65;9.82;;;-11.90;78.90;;;;;;5015957;28;20048;-79
2021/01/16 01:43:14;;;;;;;10.07;5.97;;;-11.90;78.90;;;;;;5013945;28;20352;-79
2021/01/16 01:45:41;;;;;;;23.15;8.15;;;-11.80;79.10;;;;;;4997438;28;20033;-80
2021/01/16 01:48:08;;;;;;;16.73;11.20;;;-11.80;78.50;;;;;;5015676;28;20045;-79
2021/01/16 01:50:34;;;;;;;17.98;9.50;;;-11.80;78.30;;;;;;5020083;28;20028;-78
2021/01/16 01:53:02;;;;;;;16.60;11.35;;;-11.80;78.10;;;;;;5017072;28;20022;-78
2021/01/16 01:55:29;;;;;;;15.93;8.30;;;-11.80;78.30;;;;;;5015702;28;20434;-78
2021/01/16 01:57:57;;;;;;;22.13;12.77;;;-11.80;78.60;;;;;;5015822;28;20360;-78
2021/01/16 02:00:23;;;;;;;16.02;9.88;;;-11.80;78.60;;;;;;5015858;28;20069;-78
2021/01/16 02:02:50;;;;;;;13.32;7.32;;;-11.80;78.40;;;;;;5014991;28;20117;-77
2021/01/16 02:05:16;;;;;;;20.00;9.30;;;-11.80;78.20;;;;;;5015667;28;20041;-78
2021/01/16 02:07:42;;;;;;;16.30;7.77;;;-11.80;78.10;;;;;;5015796;28;20030;-77
2021/01/16 02:10:09;;;;;;;21.58;9.38;;;-11.80;77.70;;;;;;5015580;28;20341;-77
2021/01/16 02:12:38;;;;;;;23.55;9.30;;;-11.80;77.80;;;;;;5001957;28;20507;-78
2021/01/16 02:15:25;;;;;;;18.83;10.23;;;-11.80;77.20;;;;;;5001513;28;20030;-77
2021/01/16 02:17:59;;;;;;;16.27;9.27;;;-11.90;77.20;;;;;;5016469;28;20076;-78
2021/01/16 02:20:33;;;;;;;19.02;10.77;;;-11.90;77.10;;;;;;5015430;28;20014;-77
2021/01/16 02:23:11;;;;;;;19.35;11.77;;;-11.90;77.30;;;;;;5015159;28;20068;-77
2021/01/16 02:25:42;;;;;;;17.98;9.32;;;-11.90;77.50;;;;;;5015455;28;20459;-78
2021/01/16 02:28:20;;;;;;;16.63;8.85;;;-11.90;77.80;;;;;;5000451;28;20077;-78
2021/01/16 02:30:47;;;;;;;21.02;9.20;;;-11.90;77.90;;;;;;4996890;28;20388;-77
2021/01/16 02:33:18;;;;;;;22.70;13.48;;;-11.90;77.90;;;;;;5004705;28;20026;-78
2021/01/16 02:36:09;;;;;;;26.70;13.82;;;-11.90;77.50;;;;;;5012453;28;20034;-78
2021/01/16 02:38:52;;;;;;;23.20;13.20;;;-11.90;77.30;;;;;;4995932;28;20054;-77
2021/01/16 02:41:29;;;;;;;21.88;12.77;;;-12.00;77.20;;;;;;5006645;28;20056;-77
2021/01/16 02:44:13;;;;;;;;;;;-12.00;78.40;;;;;;4996540;28;20022;-76
2021/01/16 02:46:49;;;;;;;23.90;12.70;;;-11.90;78.20;;;;;;4997244;28;19905;-78
2021/01/16 02:49:30;;;;;;;23.20;13.05;;;-12.00;77.90;;;;;;5008186;28;20034;-77
2021/01/16 02:52:11;;;;;;;29.02;13.05;;;-12.00;78.30;;;;;;4995130;28;20069;-77
2021/01/16 02:54:43;;;;;;;23.55;12.75;;;-11.90;78.30;;;;;;5014618;28;20049;-78
2021/01/16 02:57:10;;;;;;;26.73;13.07;;;-11.90;78.10;;;;;;5013586;28;20022;-77
2021/01/16 02:59:47;;;;;;;22.40;12.63;;;-12.00;78.00;;;;;;4996896;28;20029;-77
2021/01/16 03:02:15;;;;;;;23.67;11.30;;;-12.00;78.30;;;;;;5010222;28;20499;-77
2021/01/16 03:04:41;;;;;;;21.23;13.50;;;-12.00;78.30;;;;;;5014429;28;20088;-76
2021/01/16 03:07:12;;;;;;;24.50;12.00;;;-12.00;78.60;;;;;;5014857;28;20026;-78
2021/01/16 03:09:40;;;;;;;24.27;11.75;;;-12.00;78.50;;;;;;4999434;28;20041;-78
2021/01/16 03:12:11;;;;;;;19.40;11.32;;;-12.00;78.70;;;;;;5015613;28;20029;-77
2021/01/16 03:14:42;;;;;;;19.42;11.23;;;-12.00;79.10;;;;;;5014521;28;20034;-80
2021/01/16 03:17:10;;;;;;;18.90;11.27;;;-12.00;79.90;;;;;;5017882;28;20026;-78
2021/01/16 03:19:38;;;;;;;16.35;8.98;;;-12.00;79.30;;;;;;5015835;28;20014;-78
2021/01/16 03:22:21;;;;;;;15.88;9.48;;;-12.10;79.50;;;;;;5019089;28;20041;-78
2021/01/16 03:24:49;;;;;;;19.67;10.38;;;-12.10;78.80;;;;;;5015142;28;20021;-78
2021/01/16 03:27:15;;;;;;;27.52;11.57;;;-12.20;78.50;;;;;;5014178;28;20091;-77
2021/01/16 03:29:41;;;;;;;12.70;8.45;;;-12.20;78.70;;;;;;5013827;28;20026;-78
2021/01/16 03:32:08;;;;;;;24.25;10.73;;;-12.30;78.80;;;;;;5014008;28;20030;-76
2021/01/16 03:34:34;;;;;;;24.00;11.98;;;-12.30;79.10;;;;;;5013158;28;20128;-79
2021/01/16 03:37:01;;;;;;;12.07;7.60;;;-12.30;79.40;;;;;;5009218;28;20555;-79
2021/01/16 03:39:27;;;;;;;21.02;9.43;;;-12.30;79.70;;;;;;5012190;28;20048;-78
2021/01/16 03:41:53;;;;;;;17.92;10.25;;;-12.30;80.00;;;;;;5013872;28;20030;-80
2021/01/16 03:44:19;;;;;;;18.80;9.93;;;-12.30;79.80;;;;;;5016766;28;20026;-79
2021/01/16 03:46:45;;;;;;;17.97;10.90;;;-12.30;79.70;;;;;;4997018;28;20439;-78
2021/01/16 03:49:11;;;;;;;14.98;8.52;;;-12.30;79.80;;;;;;5013700;28;20029;-79
2021/01/16 03:51:38;;;;;;;13.50;10.20;;;-12.30;80.20;;;;;;5013993;28;20022;-78
2021/01/16 03:54:04;;;;;;;7.10;4.43;;;-12.30;80.30;;;;;;4995789;28;20029;-78
2021/01/16 03:56:30;;;;;;;20.88;10.82;;;-12.40;80.20;;;;;;5014737;28;20026;-79
2021/01/16 03:58:56;;;;;;;13.88;8.55;;;-12.40;80.50;;;;;;5013764;28;20465;-78
2021/01/16 04:01:22;;;;;;;17.73;8.88;;;-12.30;80.80;;;;;;5013496;28;20578;-77
2021/01/16 04:03:47;;;;;;;20.13;9.68;;;-12.30;80.90;;;;;;5013313;28;20489;-80
2021/01/16 04:06:18;;;;;;;18.00;10.45;;;-12.30;81.20;;;;;;4998209;28;20053;-78
2021/01/16 04:08:44;;;;;;;13.68;9.38;;;-12.30;81.50;;;;;;5013303;28;20131;-78
2021/01/16 04:11:11;;;;;;;18.17;9.00;;;-12.20;81.10;;;;;;5013106;28;20033;-78
2021/01/16 04:13:37;;;;;;;16.38;8.82;;;-12.20;81.20;;;;;;5013293;28;20414;-79
2021/01/16 04:16:04;;;;;;;14.45;8.43;;;-12.20;81.50;;;;;;5013024;28;20041;-79
2021/01/16 04:18:29;;;;;;;13.57;10.70;;;-12.20;81.50;;;;;;5013154;28;20022;-78
2021/01/16 04:20:56;;;;;;;15.05;8.88;;;-12.10;81.00;;;;;;5012979;28;20088;-78
2021/01/16 04:23:22;;;;;;;12.77;6.70;;;-12.20;80.50;;;;;;5013132;28;20022;-77
2021/01/16 04:25:47;;;;;;;15.23;9.95;;;-12.20;80.70;;;;;;5013063;28;20102;-79
2021/01/16 04:28:13;;;;;;;16.42;10.38;;;-12.20;80.80;;;;;;5013507;28;20010;-78
2021/01/16 04:30:39;;;;;;;12.70;7.35;;;-12.20;80.80;;;;;;5013698;28;20049;-77
2021/01/16 04:33:06;;;;;;;17.42;9.70;;;-12.20;81.10;;;;;;5013247;28;20026;-79
2021/01/16 04:35:33;;;;;;;18.60;7.65;;;-12.20;80.80;;;;;;5015033;28;20045;-78
2021/01/16 04:38:00;;;;;;;16.73;10.05;;;-12.20;80.60;;;;;;5012298;28;20068;-78
2021/01/16 04:40:27;;;;;;;16.63;9.83;;;-12.20;81.10;;;;;;5013978;28;20064;-79
2021/01/16 04:42:53;;;;;;;;;;;-12.20;81.10;;;;;;5019532;28;20317;-78
2021/01/16 04:45:19;;;;;;;14.63;10.67;;;-12.20;80.40;;;;;;5019381;28;19996;-79
2021/01/16 04:47:47;;;;;;;19.70;9.13;;;-12.20;80.80;;;;;;5018672;28;20487;-79
2021/01/16 04:50:18;;;;;;;11.52;8.07;;;-12.30;80.60;;;;;;5020286;28;20022;-78
2021/01/16 04:52:45;;;;;;;18.10;7.45;;;-12.30;80.40;;;;;;5016188;28;20483;-79
2021/01/16 04:55:13;;;;;;;14.05;9.20;;;-12.30;80.80;;;;;;5019923;28;20033;-78
2021/01/16 04:57:40;;;;;;;22.08;8.50;;;-12.30;81.50;;;;;;4998380;28;20484;-78
2021/01/16 05:00:09;;;;;;;16.98;8.65;;;-12.30;81.80;;;;;;5010575;28;20052;-77
2021/01/16 05:02:40;;;;;;;15.43;8.30;;;-12.30;82.20;;;;;;5019557;28;20061;-78
2021/01/16 05:05:10;;;;;;;18.58;10.02;;;-12.30;81.80;;;;;;5018616;28;20053;-77
2021/01/16 05:07:40;;;;;;;19.50;9.73;;;-12.30;81.80;;;;;;5019379;28;20014;-79
2021/01/16 05:10:09;;;;;;;15.60;8.02;;;-12.30;81.10;;;;;;5020296;28;20100;-80
2021/01/16 05:13:02;;;;;;;11.88;6.93;;;-12.30;80.60;;;;;;5027565;28;20097;-78
2021/01/16 05:15:30;;;;;;;19.00;9.13;;;-12.40;80.80;;;;;;5022729;28;20547;-79
2021/01/16 05:18:04;;;;;;;14.25;8.68;;;-12.40;80.70;;;;;;5020466;28;20352;-79
2021/01/16 05:20:32;;;;;;;15.00;8.77;;;-12.40;80.60;;;;;;5001848;28;20515;-79
2021/01/16 05:23:13;;;;;;;13.43;7.05;;;-12.50;80.50;;;;;;5019154;28;20029;-78
2021/01/16 05:25:49;;;;;;;11.13;6.75;;;-12.50;80.80;;;;;;5019666;28;20414;-77
2021/01/16 05:28:23;;;;;;;23.58;8.50;;;-12.50;81.10;;;;;;5027222;28;20499;-81
2021/01/16 05:30:52;;;;;;;14.63;6.30;;;-12.50;80.90;;;;;;5014402;28;20029;-79
2021/01/16 05:33:19;;;;;;;16.23;6.38;;;-12.50;80.80;;;;;;5020112;28;20017;-81
2021/01/16 05:35:45;;;;;;;;;;;-12.50;81.40;;;;;;5021311;28;20030;-79
2021/01/16 05:38:14;;;;;;;13.50;7.37;;;-12.50;81.50;;;;;;5026562;28;20294;-78
2021/01/16 05:40:40;;;;;;;13.40;8.55;;;-12.50;81.30;;;;;;5020846;28;20029;-80
2021/01/16 05:43:06;;;;;;;17.50;8.07;;;-12.60;80.70;;;;;;5019012;28;20435;-79
2021/01/16 05:45:34;;;;;;;10.45;5.72;;;-12.60;80.20;;;;;;4998275;28;20764;-77
2021/01/16 05:48:03;;;;;;;13.18;8.57;;;-12.70;79.70;;;;;;4998499;28;20057;-77
2021/01/16 05:50:29;;;;;;;10.55;8.48;;;-12.70;79.90;;;;;;5018618;28;20049;-79
2021/01/16 05:52:56;;;;;;;17.67;8.10;;;-12.80;80.20;;;;;;5017608;28;20026;-80
2021/01/16 05:55:23;;;;;;;19.60;7.00;;;-12.80;80.50;;;;;;5015999;28;20038;-80
2021/01/16 05:57:49;;;;;;;12.70;7.85;;;-12.80;80.80;;;;;;5016607;28;20018;-79
2021/01/16 06:00:25;;;;;;;17.90;7.18;;;-12.80;80.60;;;;;;5015302;28;20033;-78
2021/01/16 06:02:54;;;;;;;24.75;9.95;;;-12.70;80.90;;;;;;5015631;28;20490;-78
2021/01/16 06:05:24;;;;;;;8.75;6.65;;;-12.70;80.80;;;;;;5015693;28;20476;-77
2021/01/16 06:07:54;;;;;;;25.52;10.13;;;-12.80;80.20;;;;;;5015440;28;20021;-76
2021/01/16 06:10:21;;;;;;;15.55;6.30;;;-12.80;79.80;;;;;;5015658;28;20018;-77
2021/01/16 06:12:52;;;;;;;17.52;7.60;;;-12.80;80.00;;;;;;5015357;28;20018;-78
2021/01/16 06:15:20;;;;;;;10.70;6.63;;;-12.80;80.60;;;;;;5016460;28;20037;-77
2021/01/16 06:17:48;;;;;;;20.80;8.45;;;-12.80;80.50;;;;;;5001166;28;20017;-77
2021/01/16 06:20:18;;;;;;;14.95;7.90;;;-12.90;79.80;;;;;;5015531;28;20471;-79
2021/01/16 06:22:44;;;;;;;14.65;8.98;;;-12.90;79.80;;;;;;5015100;28;20057;-78
2021/01/16 06:25:19;;;;;;;19.05;10.48;;;-12.90;79.70;;;;;;5015836;28;20053;-77
2021/01/16 06:27:47;;;;;;;17.92;10.98;;;-12.90;79.90;;;;;;5015095;28;20416;-78
2021/01/16 06:30:15;;;;;;;12.63;6.45;;;-13.00;79.40;;;;;;5015640;28;20036;-78
2021/01/16 06:32:53;;;;;;;17.77;9.43;;;-13.00;79.80;;;;;;5018938;28;20029;-77
2021/01/16 06:35:20;;;;;;;11.02;6.55;;;-13.00;80.60;;;;;;5018289;28;20041;-78
2021/01/16 06:37:50;;;;;;;14.52;9.27;;;-13.00;80.30;;;;;;5009371;28;20014;-79
2021/01/16 06:40:33;;;;;;;11.07;6.53;;;-13.00;80.10;;;;;;5015052;28;20094;-77
2021/01/16 06:43:01;;;;;;;14.18;7.35;;;-13.00;80.50;;;;;;5014649;28;20030;-77
2021/01/16 06:45:29;;;;;;;13.70;7.68;;;-13.00;80.50;;;;;;5015146;28;20113;-78
2021/01/16 06:47:57;;;;;;;17.33;8.38;;;-13.00;80.10;;;;;;5014778;28;20080;-79
2021/01/16 06:50:24;;;;;;;18.25;9.35;;;-13.10;79.90;;;;;;5014579;28;20088;-78
2021/01/16 06:52:49;;;;;;;19.27;8.60;;;-13.10;80.50;;;;;;5015133;28;20022;-80
2021/01/16 06:55:19;;;;;;;8.65;6.75;;;-13.00;80.70;;;;;;5014587;28;20042;-78
2021/01/16 06:57:46;;;;;;;9.13;6.72;;;-13.00;80.90;;;;;;5015547;28;20014;-79
2021/01/16 07:00:15;;;;;;;11.32;8.02;;;-12.90;80.50;;;;;;5030178;28;20108;-78
2021/01/16 07:02:42;;;;;;;10.90;6.85;;;-12.90;80.00;;;;;;5016151;28;20096;-77
2021/01/16 07:05:16;;;;;;;18.35;9.50;;;-13.00;78.80;;;;;;5014298;28;20022;-81
2021/01/16 07:07:45;;;;;;;15.70;8.32;;;-13.00;79.20;;;;;;5014791;28;20036;-78
2021/01/16 07:10:13;;;;;;;12.75;6.65;;;-13.00;79.40;;;;;;5015817;28;20122;-78
2021/01/16 07:12:47;;;;;;;13.40;8.98;;;-13.00;79.70;;;;;;5016735;28;20044;-78
2021/01/16 07:15:14;;;;;;;13.73;8.75;;;-13.00;79.40;;;;;;5021441;28;20026;-78
2021/01/16 07:17:41;;;;;;;15.13;6.38;;;-13.00;79.20;;;;;;5021525;28;20100;-78
2021/01/16 07:20:09;;;;;;;14.65;5.75;;;-13.00;79.30;;;;;;5015538;28;20140;-78
2021/01/16 07:22:38;;;;;;;17.90;7.88;;;-13.00;80.60;;;;;;5015472;28;20140;-80
2021/01/16 07:25:09;;;;;;;15.00;7.93;;;-13.00;79.80;;;;;;5015139;28;20093;-78
2021/01/16 07:27:36;;;;;;;16.77;9.43;;;-12.90;79.50;;;;;;5014466;28;20026;-80
2021/01/16 07:30:07;;;;;;;15.38;8.20;;;-13.00;79.20;;;;;;5014297;28;20022;-79
2021/01/16 07:32:49;;;;;;;11.32;6.70;;;-13.00;79.50;;;;;;5005529;28;20037;-79
2021/01/16 07:35:17;;;;;;;14.77;8.40;;;-13.00;79.80;;;;;;5012793;28;20034;-78
2021/01/16 07:37:44;;;;;;;13.43;7.60;;;-12.90;79.90;;;;;;5012891;28;20364;-78
2021/01/16 07:40:30;;;;;;;19.10;9.23;;;-12.90;80.00;;;;;;5010444;28;20018;-79
2021/01/16 07:43:00;;;;;;;18.73;9.82;;;-12.90;80.40;;;;;;5012354;28;20025;-80
2021/01/16 07:45:37;;;;;;;17.15;10.23;;;-12.80;80.10;;;;;;5004348;28;20022;-80
2021/01/16 07:48:07;;;;;;;16.92;8.55;;;-12.80;79.60;;;;;;5013664;28;20101;-80
2021/01/16 07:50:35;;;;;;;15.68;8.02;;;-12.80;80.00;;;;;;5013319;28;20026;-81
2021/01/16 07:53:03;;;;;;;17.70;9.75;;;-12.80;80.30;;;;;;4995420;28;20415;-79
2021/01/16 07:55:46;;;;;;;14.57;7.15;;;-12.70;80.60;;;;;;5013148;28;20034;-79
2021/01/16 07:58:31;;;;;;;13.38;6.88;;;-12.70;80.00;;;;;;5013301;28;20095;-81
2021/01/16 08:01:30;;;;;;;16.65;7.97;;;-12.80;78.90;;;;;;5013845;28;20038;-81
2021/01/16 08:04:22;;;;;;;11.35;6.60;;;-12.80;79.10;;;;;;4973288;28;20407;-80
2021/01/16 08:07:05;;;;;;;11.90;6.63;;;-12.80;79.40;;;;;;4986658;28;20034;-79
2021/01/16 08:10:04;;;;;;;11.68;6.35;;;-12.90;79.30;;;;;;5013461;28;20018;-79
2021/01/16 08:12:37;;;;;;;12.20;7.18;;;-13.00;79.70;;;;;;4963064;28;20116;-79
2021/01/16 08:15:03;;;;;;;17.25;9.13;;;-13.00;79.70;;;;;;4984555;28;20372;-79
2021/01/16 08:17:39;;;;;;;15.45;8.93;;;-13.00;79.40;;;;;;5012394;28;20022;-79
2021/01/16 08:20:27;;;;;;;13.52;8.27;;;-13.00;79.30;;;;;;5000344;28;20037;-80
2021/01/16 08:22:59;;;;;;;10.60;6.47;;;-13.00;79.40;;;;;;5013397;28;20087;-78
2021/01/16 08:25:30;;;;;;;14.20;9.27;;;-13.00;79.50;;;;;;4995576;28;20033;-78
2021/01/16 08:28:06;;;;;;;14.63;8.13;;;-13.10;79.50;;;;;;5013069;28;20105;-78
2021/01/16 08:30:34;;;;;;;10.15;6.90;;;-13.10;79.60;;;;;;5013082;28;20030;-79
2021/01/16 08:33:13;;;;;;;13.20;7.30;;;-13.10;78.70;;;;;;5007918;28;20056;-78
2021/01/16 08:35:56;;;;;;;12.55;7.35;;;-13.20;78.60;;;;;;5012516;28;20041;-77
2021/01/16 08:38:24;;;;;;;16.30;7.88;;;-13.20;79.40;;;;;;5013918;28;20030;-80
2021/01/16 08:41:07;;;;;;;15.40;8.40;;;-13.20;79.40;;;;;;5018470;28;20021;-82
2021/01/16 08:43:37;;;;;;;18.88;10.75;;;-13.20;79.90;;;;;;5015928;28;20049;-83
2021/01/16 08:46:08;;;;;;;26.45;9.73;;;-13.20;80.60;;;;;;5015005;28;20500;-80
2021/01/16 08:48:34;;;;;;;18.15;9.40;;;-13.20;80.10;;;;;;5014200;28;20125;-80
2021/01/16 08:50:59;;;;;;;11.27;6.93;;;-13.20;80.60;;;;;;5026259;28;20022;-79
2021/01/16 08:53:26;;;;;;;10.18;7.45;;;-13.20;80.20;;;;;;4999225;28;20030;-77
2021/01/16 08:55:52;;;;;;;18.27;7.95;;;-13.20;80.70;;;;;;5018383;28;20029;-82
2021/01/16 08:58:18;;;;;;;10.73;5.93;;;-13.20;80.50;;;;;;5017265;28;20382;-83
2021/01/16 09:00:44;;;;;;;16.30;7.30;;;-13.20;80.60;;;;;;5011723;28;20037;-83
2021/01/16 09:03:16;;;;;;;20.60;11.15;;;-13.20;80.80;;;;;;5002537;28;20038;-81
2021/01/16 09:05:43;;;;;;;13.55;8.27;;;-13.20;80.90;;;;;;5006122;28;20026;-84
2021/01/16 09:08:19;;;;;;;9.02;6.13;;;-13.20;80.60;;;;;;5009081;28;20033;-84
2021/01/16 09:10:45;;;;;;;19.85;9.80;;;-13.20;80.70;;;;;;5014476;28;20413;-79
2021/01/16 09:13:36;;;;;;;16.55;10.32;;;-13.10;80.90;;;;;;5024384;28;20022;-81
2021/01/16 09:16:02;;;;;;;17.60;8.60;;;-13.10;81.10;;;;;;5018483;28;20065;-83
2021/01/16 09:18:29;;;;;;;9.27;6.32;;;-13.10;80.60;;;;;;5010224;28;20387;-83
2021/01/16 09:20:56;;;;;;;17.45;8.73;;;-13.10;80.20;;;;;;5020596;28;20378;-81
2021/01/16 09:23:26;;;;;;;;;;;-13.10;79.90;;;;;;5015186;28;20055;-82
2021/01/16 09:25:58;;;;;;;15.30;9.20;;;-13.10;80.10;;;;;;5012122;28;19909;-84
2021/01/16 09:28:45;;;;;;;14.32;7.50;;;-13.10;80.80;;;;;;5001899;28;20022;-83
2021/01/16 09:31:45;;;;;;;19.85;7.30;;;-13.10;81.10;;;;;;4995215;28;20179;-81
2021/01/16 09:34:18;;;;;;;9.05;6.35;;;-13.10;80.60;;;;;;5013807;28;20030;-81
2021/01/16 09:36:56;;;;;;;18.00;8.13;;;-13.10;80.90;;;;;;5016152;28;20034;-82
2021/01/16 09:39:29;;;;;;;15.93;9.23;;;-13.00;81.30;;;;;;5016440;28;20371;-83
2021/01/16 09:42:00;;;;;;;15.38;7.97;;;-13.00;81.50;;;;;;4999752;28;20108;-83
2021/01/16 09:44:47;;;;;;;9.73;7.00;;;-12.90;81.20;;;;;;5008385;28;20072;-82
2021/01/16 09:47:27;;;;;;;16.27;10.18;;;-12.90;81.10;;;;;;5012792;28;20037;-82
2021/01/16 09:50:16;;;;;;;20.63;9.77;;;-12.90;80.40;;;;;;5015868;28;20451;-83
2021/01/16 09:52:51;;;;;;;16.05;6.65;;;-12.90;80.20;;;;;;4990365;28;20045;-81
2021/01/16 09:55:31;;;;;;;13.77;6.70;;;-12.90;80.70;;;;;;5015521;28;20108;-81
2021/01/16 09:58:01;;;;;;;11.55;7.25;;;-12.90;80.90;;;;;;5015554;28;20018;-83
2021/01/16 10:00:35;;;;;;;16.75;9.77;;;-12.80;80.90;;;;;;4988217;28;20030;-83
2021/01/16 10:03:06;;;;;;;14.75;8.40;;;-12.70;81.40;;;;;;5014710;28;20474;-83
2021/01/16 10:05:38;;;;;;;15.05;9.25;;;-12.70;81.70;;;;;;5017811;28;20032;-83
2021/01/16 10:08:06;;;;;;;14.02;8.00;;;-12.60;80.60;;;;;;5017645;28;20097;-82
2021/01/16 10:10:44;;;;;;;;;;;-12.70;79.90;;;;;;5016946;28;20057;-82
2021/01/16 10:13:29;;;;;;;13.57;7.07;;;-12.70;80.00;;;;;;5014521;28;19928;-83
2021/01/16 10:15:59;;;;;;;9.77;7.05;;;-12.70;79.70;;;;;;5017747;28;20037;-81
2021/01/16 10:18:28;;;;;;;17.83;9.70;;;-12.70;79.60;;;;;;5018000;28;20056;-82
2021/01/16 10:21:12;;;;;;;12.82;7.00;;;-12.70;79.30;;;;;;5016046;28;20018;-80
2021/01/16 10:23:42;;;;;;;13.32;7.72;;;-12.70;79.00;;;;;;5016146;28;20025;-83
2021/01/16 10:26:16;;;;;;;14.50;7.28;;;-12.70;79.70;;;;;;5016709;28;20071;-83
2021/01/16 10:28:48;;;;;;;11.98;8.43;;;-12.70;80.60;;;;;;5017008;28;20136;-82
2021/01/16 10:31:21;;;;;;;17.33;9.30;;;-12.70;81.50;;;;;;5017748;28;20083;-82
2021/01/16 10:33:47;;;;;;;15.13;9.15;;;-12.70;81.30;;;;;;5021746;28;20021;-81
2021/01/16 10:36:19;;;;;;;19.92;11.30;;;-12.60;81.20;;;;;;5022836;28;20037;-82
2021/01/16 10:38:49;;;;;;;16.88;9.75;;;-12.60;80.70;;;;;;5017517;28;20426;-82
2021/01/16 10:41:36;;;;;;;18.77;9.35;;;-12.60;80.30;;;;;;5022076;28;20029;-79
2021/01/16 10:44:03;;;;;;;20.27;9.48;;;-12.50;80.50;;;;;;5008260;28;20108;-84
2021/01/16 10:46:38;;;;;;;17.90;10.43;;;-12.60;80.60;;;;;;5022672;28;20054;-82
2021/01/16 10:49:48;;;;;;;18.33;10.57;;;-12.60;80.60;;;;;;5024419;28;20072;-82
2021/01/16 10:52:29;;;;;;;18.45;10.02;;;-12.50;80.50;;;;;;5008039;28;20038;-84
2021/01/16 10:55:10;;;;;;;17.85;6.40;;;-12.50;79.90;;;;;;5015791;28;20029;-82
2021/01/16 10:57:47;;;;;;;21.17;11.50;;;-12.50;80.80;;;;;;5016311;28;20056;-82
2021/01/16 11:00:17;;;;;;;11.90;6.10;;;-12.50;80.60;;;;;;5020513;28;20025;-82
2021/01/16 11:02:46;;;;;;;19.25;9.93;;;-12.50;80.20;;;;;;4979901;28;20043;-82
2021/01/16 11:05:26;;;;;;;14.82;7.22;;;-12.50;80.60;;;;;;4988058;28;20101;-80
2021/01/16 11:07:55;;;;;;;13.85;7.05;;;-12.50;80.30;;;;;;4976773;28;20022;-80
2021/01/16 11:10:32;;;;;;;12.73;7.50;;;-12.50;80.20;;;;;;4977175;28;20022;-79
2021/01/16 11:13:20;;;;;;;18.60;8.95;;;-12.50;80.30;;;;;;5008836;28;20026;-81
2021/01/16 11:15:49;;;;;;;11.95;7.15;;;-12.50;80.20;;;;;;5001969;28;20031;-81
2021/01/16 11:18:34;;;;;;;14.23;8.40;;;-12.50;80.80;;;;;;4986275;28;20030;-82
2021/01/16 11:21:03;;;;;;;15.13;8.43;;;-12.40;80.60;;;;;;5000229;28;20082;-82
2021/01/16 11:23:48;;;;;;;20.17;10.80;;;-12.40;80.30;;;;;;4996285;28;20022;-82
2021/01/16 11:26:16;;;;;;;12.10;6.68;;;-12.40;79.70;;;;;;5003869;28;20046;-80
2021/01/16 11:28:53;;;;;;;15.15;8.32;;;-12.50;79.90;;;;;;5005009;28;20026;-81
2021/01/16 11:31:34;;;;;;;15.45;6.68;;;-12.40;80.40;;;;;;4996503;28;20026;-79
2021/01/16 11:34:24;;;;;;;14.15;7.90;;;-12.40;80.20;;;;;;4992314;28;20427;-80
2021/01/16 11:37:04;;;;;;;13.80;8.70;;;-12.40;79.60;;;;;;4985141;28;20526;-82
2021/01/16 11:39:48;;;;;;;13.30;8.18;;;-12.40;79.50;;;;;;4977029;28;20030;-80
2021/01/16 11:42:14;;;;;;;13.55;6.50;;;-12.40;79.10;;;;;;4990517;28;20026;-79
2021/01/16 11:45:01;;;;;;;15.73;8.23;;;-12.50;78.30;;;;;;4994252;28;20030;-80
2021/01/16 11:47:29;;;;;;;12.57;8.95;;;-12.50;78.30;;;;;;4994084;28;20411;-80
2021/01/16 11:49:56;;;;;;;20.95;8.40;;;-12.50;78.80;;;;;;4994306;28;20053;-79
2021/01/16 11:52:22;;;;;;;16.45;7.70;;;-12.50;79.00;;;;;;4992878;28;20033;-78
2021/01/16 11:54:48;;;;;;;13.33;7.77;;;-12.60;79.40;;;;;;4994082;28;20393;-80
2021/01/16 11:57:26;;;;;;;16.55;9.27;;;-12.60;79.50;;;;;;4974072;28;20057;-80
2021/01/16 11:59:56;;;;;;;18.58;10.20;;;-12.50;79.50;;;;;;4976448;28;20037;-79
2021/01/16 12:02:24;;;;;;;11.95;7.53;;;-12.50;79.40;;;;;;5005781;28;20120;-79
2021/01/16 12:04:49;;;;;;;19.70;10.18;;;-12.60;79.30;;;;;;4996532;28;20104;-80
2021/01/16 12:07:19;;;;;;;6.93;5.28;;;-12.60;79.70;;;;;;5013965;28;20088;-81
2021/01/16 12:09:46;;;;;;;16.63;8.68;;;-12.60;79.80;;;;;;5012001;28;20027;-81
2021/01/16 12:12:12;;;;;;;;;;;-12.60;79.90;;;;;;5008461;28;20022;-82
2021/01/16 12:14:40;;;;;;;16.08;8.68;;;-12.60;79.80;;;;;;5004008;28;19913;-82
2021/01/16 12:17:15;;;;;;;20.05;8.05;;;-12.60;79.00;;;;;;4988593;28;20472;-82
2021/01/16 12:19:41;;;;;;;14.27;10.55;;;-12.60;79.70;;;;;;5000170;28;20076;-82
2021/01/16 12:22:10;;;;;;;17.80;11.85;;;-12.60;80.20;;;;;;5005775;28;20026;-81
2021/01/16 12:24:36;;;;;;;25.00;9.32;;;-12.60;79.40;;;;;;5012112;28;20031;-83
2021/01/16 12:27:04;;;;;;;16.27;9.48;;;-12.60;79.60;;;;;;5004915;28;20018;-82
2021/01/16 12:29:42;;;;;;;15.35;8.68;;;-12.70;79.50;;;;;;4997010;28;20030;-81
2021/01/16 12:32:13;;;;;;;22.35;7.35;;;-12.70;79.40;;;;;;5021008;28;20022;-80
2021/01/16 12:34:50;;;;;;;24.42;11.50;;;-12.70;80.00;;;;;;5014803;28;20101;-82
2021/01/16 12:37:28;;;;;;;21.65;10.20;;;-12.70;79.90;;;;;;4995135;28;20064;-81
2021/01/16 12:39:54;;;;;;;16.80;8.07;;;-12.70;78.60;;;;;;5011949;28;20080;-81
2021/01/16 12:42:21;;;;;;;13.82;8.98;;;-12.70;78.50;;;;;;4995934;28;20025;-82
2021/01/16 12:44:47;;;;;;;16.45;9.02;;;-12.70;79.00;;;;;;5006293;28;20026;-80
2021/01/16 12:47:22;;;;;;;16.33;10.38;;;-12.80;79.30;;;;;;5016056;28;20080;-80